Jogging des Cerises 12/07/2019 - 7,8 km
Mise à jour le : 13/07/2019 à 16:47
Correction possible jusqu'au 26/07/2019 en cliquant ici
Place Nom Prénom Dossard Temps Vitesse Allure Place. Cat. Catégorie
1 DEFRAITEUR ROMAIN 992 26:57 17,37 3:27 1 Séniors
2 WIERTZ XAVIER 4 26:58 17,35 3:27 2 Séniors
3 WEBER CLEMENT 314 27:17 17,15 3:29 3 Séniors
4 DUBOIS SAMUEL 755 27:46 16,85 3:33 4 Séniors
5 TIMMERMANN ALEXANDRE 1 28:12 16,60 3:36 5 Séniors
6 DUMOULIN MAXIME 250 28:14 16,58 3:37 6 Séniors
7 VRANCKEN JO 823 28:22 16,50 3:38 1 Vétérans 1
8 BOULANGER BRYAN 107 28:36 16,36 3:40 7 Séniors
9 BOLLAND DEMPSEY 811 28:45 16,28 3:41 8 Séniors
10 GODFRIAUX REMI 961 28:52 16,21 3:42 9 Séniors
11 VERVIER ARNAUD 428 29:15 16,00 3:45 10 Séniors
12 MASUY GEOFFREY 846 29:21 15,95 3:45 11 Séniors
13 DAEL FABRICE 185 29:35 15,82 3:47 2 Vétérans 1
14 VAN EMELEN GILLES 806 29:47 15,71 3:49 12 Séniors
15 SELERIN PASCAL 938 29:49 15,70 3:49 13 Séniors
16 LECLERCQ JORDAN 429 29:58 15,62 3:50 14 Séniors
17 LEJOLY PIERRE 969 30:05 15,56 3:51 15 Séniors
18 KLEIN SAMUEL 970 30:05 15,56 3:51 16 Séniors
19 GYSEN GERALD 853 30:09 15,52 3:51 3 Vétérans 1
20 BELLEFLAMME PIERRE 833 30:15 15,47 3:52 17 Séniors
21 TELLER RENAUD 649 30:24 15,39 3:53 18 Séniors
22 SCHOLZEN CHRISTOPHE 596 30:25 15,39 3:53 19 Séniors
23 LAURENT AGNES 505 30:37 15,29 3:55 1 Dames
24 FRODMONT ARNAUD 834 30:45 15,22 3:56 20 Séniors
25 JAMAR YANN 1107 30:52 15,16 3:57 21 Séniors
26 JAMAR YANN 1085 30:55 15,14 3:57 22 Séniors
27 ESTEBEZ ANDRE 892 30:59 15,10 3:58 4 Vétérans 1
28 JANDRAIN FRANCOIS 381 31:05 15,06 3:59 5 Vétérans 1
29 BAAR GREGORY 49 31:07 15,04 3:59 23 Séniors
30 RENSON PIERRE 1001 31:18 14,95 4:00 24 Séniors
31 JUNIUS ARNAUD 266 31:22 14,92 4:01 25 Séniors
32 DEMARCO CYRIL 752 31:29 14,86 4:02 26 Séniors
33 LOCHT PHILIPPE 305 31:35 14,82 4:02 27 Séniors
34 GOMZE MICHEL 5 31:36 14,81 4:03 1 Vétérans 2
35 LORQUET FREDERIC 1055 31:38 14,79 4:03 28 Séniors
36 LOCHT MICHEL 455 31:39 14,79 4:03 6 Vétérans 1
37 BRODEL MARTIN 133 31:40 14,78 4:03 7 Vétérans 1
38 WALRAFF WALLY 678 31:57 14,65 4:05 2 Vétérans 2
39 DIEPART XAVIER 812 31:57 14,65 4:05 8 Vétérans 1
40 VANHULST BENOIT 662 32:00 14,62 4:06 29 Séniors
41 LEONARD SEBASTIEN 1036 32:08 14,56 4:07 30 Séniors
42 DEBATTY NOE 1009 32:10 14,55 4:07 1 Espoirs Garçons
43 DELHEZ FLORENTIN 212 32:13 14,53 4:07 31 Séniors
44 D'AFFNAY JEAN-FRANCOIS 162 32:14 14,52 4:07 9 Vétérans 1
45 PETERS TOBIAS 522 32:17 14,50 4:08 32 Séniors
46 WEUSTEN CEDRIC 444 32:21 14,47 4:08 33 Séniors
47 DAMOISEAU THIERRY 168 32:21 14,47 4:08 10 Vétérans 1
48 CHRISTOPHE CLONEN 451 32:26 14,43 4:09 34 Séniors
49 HAVARD THOMAS 765 32:32 14,38 4:10 2 Espoirs Garçons
50 DONNEAU PIERRE 315 32:33 14,38 4:10 35 Séniors
51 FISCHER RAPHAEL 292 32:34 14,37 4:10 36 Séniors
52 DEWEZ JULIEN 910 32:41 14,32 4:11 37 Séniors
53 CREPPE JULIEN 800 32:46 14,28 4:12 38 Séniors
54 DEMONCEAU JEAN LUC 157 32:51 14,25 4:12 3 Vétérans 2
55 LEJEUNE PHILIPPE 776 32:52 14,24 4:12 4 Vétérans 2
56 LANNEER GABRIEL 398 32:54 14,22 4:13 3 Espoirs Garçons
57 SIEBENBOUR MICHEL 629 33:00 14,18 4:13 5 Vétérans 2
58 DERU FABIAN 233 33:03 14,16 4:14 11 Vétérans 1
59 MUYLKENS THIBAUT 1072 33:08 14,12 4:14 39 Séniors
60 EVELETTE JEAN 930 33:13 14,09 4:15 6 Vétérans 2
61 LARDINOIS SIMON 797 33:18 14,05 4:16 40 Séniors
62 LEJACQUES THIBAUT 1054 33:19 14,05 4:16 41 Séniors
63 AGUS PAOLO 41 33:19 14,05 4:16 12 Vétérans 1
64 LEJEUNE GREGORY 870 33:22 14,03 4:16 42 Séniors
65 MOSTERT XAVIER 909 33:26 14,00 4:17 4 Espoirs Garçons
66 OLIESLAGER GILLES 851 33:29 13,98 4:17 43 Séniors
67 DEGUELDRE JEAN LOUIS 1053 33:38 13,91 4:18 7 Vétérans 2
68 RONKART PHILIPPE 973 33:39 13,91 4:18 13 Vétérans 1
69 JACOBY ANAIK 1069 33:40 13,90 4:18 44 Séniors
70 THOMSIN BENJAMIN 990 33:41 13,89 4:19 45 Séniors
71 CLABAU JONATHAN 896 33:55 13,80 4:20 46 Séniors
72 LONNEUX ANTOINE 832 33:55 13,80 4:20 47 Séniors
73 HUBERT ERIC 182 33:57 13,78 4:21 8 Vétérans 2
74 BOSCOLO MANUEL 72 34:04 13,74 4:22 14 Vétérans 1
75 VILZ ROBERT 453 34:12 13,68 4:23 1 Vétérans 3
76 OLIESLAGER ROMAIN 881 34:13 13,68 4:23 48 Séniors
77 DERU RAPHAEL 894 34:16 13,66 4:23 15 Vétérans 1
78 SIMONIS QUENTIN 815 34:18 13,64 4:23 49 Séniors
79 BECKERS LOIC 944 34:24 13,60 4:24 50 Séniors
80 LIEBENS ERWAN 1005 34:24 13,60 4:24 51 Séniors
81 BOURS SAMUEL 861 34:25 13,60 4:24 52 Séniors
82 STANCHER BRUNO 925 34:25 13,60 4:24 53 Séniors
83 DAMBLON PATRICK 167 34:28 13,58 4:25 9 Vétérans 2
84 CALOZET DONATIEN 1040 34:29 13,57 4:25 54 Séniors
85 KEVER MARTIN 840 34:31 13,56 4:25 5 Espoirs Garçons
86 ALABISO LUCA 772 34:35 13,53 4:26 55 Séniors
87 MOSTERT PAULINE 908 34:36 13,53 4:26 2 Dames
88 FLAMAND MICHAEL 257 34:37 13,52 4:26 56 Séniors
89 VANBRABANT RAPHAEL 1111 34:43 13,48 4:27 16 Vétérans 1
90 SCHOENMAKERS BENOIT 585 34:49 13,44 4:27 10 Vétérans 2
91 PIETTE OLIVIER 924 34:52 13,42 4:28 17 Vétérans 1
92 EL-BALDI SAID 258 34:53 13,42 4:28 18 Vétérans 1
93 GENREITH SIMON 847 34:55 13,40 4:28 6 Espoirs Garçons
94 BENJAMIN WEIS 928 35:01 13,36 4:29 57 Séniors
95 CANALES ALBERTO 130 35:02 13,36 4:29 2 Vétérans 3
96 FONTAINE SERGE 291 35:03 13,35 4:29 19 Vétérans 1
97 GAILLARD JEROME 873 35:05 13,34 4:29 58 Séniors
98 BONHOMME LAURENT 883 35:08 13,32 4:30 59 Séniors
99 DESSOUROUX JEAN 227 35:12 13,29 4:30 3 Vétérans 3
100 DELLICOUR DAVID 753 35:12 13,29 4:30 20 Vétérans 1
101 DELANDSHEERE LIONEL 852 35:14 13,28 4:31 60 Séniors
102 WEERTS JEAN 831 35:15 13,28 4:31 21 Vétérans 1
103 LEJEUNE FRANCOIS 1015 35:17 13,26 4:31 61 Séniors
104 CONQUELET LAURENCE 781 35:17 13,26 4:31 1 Ainées 2
105 LENZ MARVIN 790 35:19 13,25 4:31 62 Séniors
106 LAVIOLETTE COLIN 773 35:24 13,22 4:32 63 Séniors
107 MORAY JULIEN 234 35:25 13,21 4:32 64 Séniors
108 SONTAG THIERRY 615 35:27 13,20 4:32 22 Vétérans 1
109 LEGRAND CHRISTOPHE 204 35:28 13,19 4:32 65 Séniors
110 TANS LAURENT 829 35:29 13,19 4:32 66 Séniors
111 JENNES DAMIEN 959 35:31 13,18 4:33 67 Séniors
112 VAN LANGEUELD ROGER 821 35:33 13,16 4:33 4 Vétérans 3
113 CANALES MIGUEL 940 35:36 13,15 4:33 68 Séniors
114 PIRLOT BERNARD 541 35:39 13,13 4:34 69 Séniors
115 GEORGES SEBASTIEN 101 35:45 13,09 4:35 70 Séniors
116 BORN BENJAMIN 912 35:48 13,07 4:35 71 Séniors
117 LE VAN ALEX 1039 35:55 13,03 4:36 72 Séniors
118 SOMJA VICTOR 527 35:56 13,02 4:36 5 Vétérans 3
119 LIEGEOIS SYLVAIN 214 35:58 13,01 4:36 73 Séniors
120 BODSON FRANCOIS 1109 35:59 13,01 4:36 74 Séniors
121 EVRARD AMAURY 849 36:00 13,00 4:36 75 Séniors
122 KARIGER THOMAS 835 36:03 12,98 4:37 7 Espoirs Garçons
123 BURLEON QUENTIN 91 36:05 12,97 4:37 76 Séniors
124 SEVAR JEAN-FRANCOIS 905 36:09 12,95 4:38 23 Vétérans 1
125 SERVAIS CEDRIC 1018 36:17 12,90 4:39 77 Séniors
126 NYSSEN PIERRE 378 36:19 12,89 4:39 11 Vétérans 2
127 CALIFICE BERTRAND 1067 36:21 12,87 4:39 78 Séniors
128 LAMBERT MAXIME 962 36:23 12,86 4:39 79 Séniors
129 ROUSSEAU ANTOINE 1063 36:23 12,86 4:39 80 Séniors
130 FAUVIAUX THOMAS 963 36:23 12,86 4:39 81 Séniors
131 PTAK BENOIT 850 36:24 12,86 4:40 24 Vétérans 1
132 JORIS JONATHAN 762 36:25 12,85 4:40 82 Séniors
133 NOLS FRANCOISE 493 36:25 12,85 4:40 1 Ainées 1
134 HABETS JONATHAN 989 36:26 12,84 4:40 83 Séniors
135 DORTU AXEL 980 36:27 12,84 4:40 84 Séniors
136 DELINCE GEOFFREY 854 36:28 12,83 4:40 85 Séniors
137 LANGHOOR RAPHAEL 1045 36:30 12,82 4:40 86 Séniors
138 SICIM MUSTAFA 626 36:30 12,82 4:40 25 Vétérans 1
139 SUM DIN 979 36:34 12,80 4:41 87 Séniors
140 BIDOUL GIL 914 36:37 12,78 4:41 88 Séniors
141 MALMENDIER GUILLAUME 798 36:47 12,72 4:42 89 Séniors
142 HEINRICHS GREGORY 346 36:59 12,65 4:44 90 Séniors
143 FEY CELINE 191 37:00 12,65 4:44 3 Dames
144 NAWYN BENJAMIN 16 37:01 12,64 4:44 26 Vétérans 1
145 SIEBENBOUR JUSTIN 839 37:02 12,64 4:44 91 Séniors
146 FASSIN ELODIE 189 37:06 12,61 4:45 4 Dames
147 LEROY ROMAIN 1044 37:10 12,59 4:45 8 Espoirs Garçons
148 HENROTTE THIERRY 1020 37:16 12,56 4:46 12 Vétérans 2
149 OURY PATRICE 819 37:21 12,53 4:47 13 Vétérans 2
150 AL ASSOUAD THOMAS 997 37:22 12,52 4:47 92 Séniors
151 SCHYNS SAUNA 903 37:26 12,50 4:47 9 Espoirs Garçons
152 DESSY BENOIT 885 37:27 12,50 4:48 93 Séniors
153 TOUETTE PIERRE 1068 37:28 12,49 4:48 94 Séniors
154 YANICK HOLGER 844 37:33 12,46 4:48 14 Vétérans 2
155 SERVAIS NATHALIE 624 37:35 12,45 4:49 2 Ainées 2
156 SPRONCK HERVE 636 37:41 12,42 4:49 27 Vétérans 1
157 HEUSSCHEN DOMINIQUE 359 37:41 12,42 4:49 15 Vétérans 2
158 JACQUINET BERTRAND 948 37:42 12,41 4:50 95 Séniors
159 FRANCK REMI 947 37:42 12,41 4:50 96 Séniors
160 KEVELAER BEATRICE 361 37:42 12,41 4:50 3 Ainées 2
161 NADENOEN OLIVIER 487 37:43 12,41 4:50 28 Vétérans 1
162 PIERRE FABIAN 534 37:46 12,39 4:50 29 Vétérans 1
163 BAGUETTE LIONEL 956 37:50 12,37 4:51 97 Séniors
164 LOUVIAUX CINDY 464 37:51 12,36 4:51 2 Ainées 1
165 LEJEUNE MARTIN 860 37:55 12,34 4:51 98 Séniors
166 ROX DAVID 859 37:55 12,34 4:51 99 Séniors
167 BRICTEUX MARIUS 1102 38:02 12,30 4:52 100 Séniors
168 BOANFA STEFAN 826 38:03 12,30 4:52 10 Espoirs Garçons
169 CAVADEZ JULIE 1064 38:06 12,28 4:53 5 Dames
170 WERA BENJAMIN 1006 38:08 12,27 4:53 11 Espoirs Garçons
171 LAMBERT CHRISTOPHE 413 38:10 12,26 4:53 101 Séniors
172 SEVRIN FREDERIC 1011 38:16 12,23 4:54 102 Séniors
173 ADAM MURIELLE 54 38:19 12,21 4:54 3 Ainées 1
174 MARCOTTE JEAN LUC 953 38:20 12,21 4:54 6 Vétérans 3
175 DUFOUR AXEL 891 38:22 12,20 4:55 103 Séniors
176 HOCK MICHAEL 468 38:23 12,19 4:55 104 Séniors
177 GOHY FLORIAN 874 38:24 12,19 4:55 12 Espoirs Garçons
178 ORBAN SARAH 528 38:29 12,16 4:56 6 Dames
179 CEULEMENANS ROMAIN 1003 38:34 12,13 4:56 105 Séniors
180 ROCKS FRANCOIS 1021 38:40 12,10 4:57 106 Séniors
181 HERZET MIREILLE 457 38:42 12,09 4:57 1 Ainées 3
182 DEVILLE YVES 499 38:43 12,09 4:57 16 Vétérans 2
183 BERGSMA BENNO 780 38:44 12,08 4:57 17 Vétérans 2
184 DOMBARD ALAIN 774 38:50 12,05 4:58 18 Vétérans 2
185 LEMOINE GUILLAUME 1061 38:53 12,04 4:59 13 Espoirs Garçons
186 LACROIX GILLES 929 38:56 12,02 4:59 107 Séniors
187 LACROIX JULIEN 927 38:56 12,02 4:59 108 Séniors
188 LOGNARD MICHAEL 825 38:57 12,01 4:59 109 Séniors
189 SIMONIS KEPHREN 814 39:03 11,98 5:00 110 Séniors
190 DERHORE MIKE 900 39:05 11,97 5:00 30 Vétérans 1
191 HERMAN VINCENT 858 39:06 11,97 5:00 31 Vétérans 1
192 PLUNUS OCEANE 384 39:08 11,96 5:01 7 Dames
193 CARABIN PHILIPPE 864 39:08 11,96 5:01 7 Vétérans 3
194 FEY PHILIPPE 192 39:09 11,95 5:01 19 Vétérans 2
195 ROOMANS CHRISTIAN 581 39:16 11,92 5:02 20 Vétérans 2
196 BECKERS JOEL 61 39:18 11,91 5:02 32 Vétérans 1
197 BECKER MICHAEL 842 39:18 11,91 5:02 111 Séniors
198 CHEBIL RAMI 139 39:19 11,90 5:02 33 Vétérans 1
199 PIEDBOEUF BERTRAND 1023 39:20 11,90 5:02 112 Séniors
200 SCHYNS BASTIEN 904 39:22 11,89 5:02 113 Séniors
201 DEVIVIER MARC 295 39:23 11,88 5:02 34 Vétérans 1
202 SORET XAVIER 999 39:26 11,87 5:03 114 Séniors
203 PITCHOT CLAUDE 1046 39:28 11,86 5:03 35 Vétérans 1
204 CARELLA DAVID 1004 39:29 11,85 5:03 115 Séniors
205 DEGROS BRUNO 813 39:30 11,85 5:03 116 Séniors
206 LAMBRETTE THOMAS 1037 39:32 11,84 5:04 117 Séniors
207 PIEP RENE 848 39:33 11,83 5:04 21 Vétérans 2
208 DUMONT MARTIN 803 39:37 11,81 5:04 118 Séniors
209 ANDRIEN TONY 51 39:37 11,81 5:04 22 Vétérans 2
210 JEROME STEPHANE 17 39:40 11,80 5:05 36 Vétérans 1
211 WIRTZFELD FRANCOIS 871 39:46 11,77 5:05 119 Séniors
212 LEGROS FRANCIS 431 39:57 11,71 5:07 23 Vétérans 2
213 MULIERO ENRICO 480 39:57 11,71 5:07 37 Vétérans 1
214 WYDOOGHE THOMAS 1008 39:58 11,71 5:07 120 Séniors
215 SCHWEYEN ROBIN 915 39:58 11,71 5:07 121 Séniors
216 TIMMERS LAURENT 658 39:58 11,71 5:07 122 Séniors
217 TELLER ALICIA 646 40:00 11,70 5:07 8 Dames
218 DANNER DIEGO 754 40:04 11,68 5:08 14 Espoirs Garçons
219 MESTREZ CELINE 978 40:06 11,67 5:08 1 Espoirs Filles
220 MESTREZ ERIC 7 40:07 11,67 5:08 38 Vétérans 1
221 MESTREZ VIRGIL 977 40:07 11,67 5:08 15 Espoirs Garçons
222 LEYENS OLIVIER 1007 40:07 11,66 5:08 123 Séniors
223 LENZ MARC 789 40:08 11,66 5:08 24 Vétérans 2
224 SIMONIS TRISTAN 816 40:09 11,66 5:08 16 Espoirs Garçons
225 CRASSON VINCENT 818 40:10 11,65 5:09 8 Vétérans 3
226 SOUR NASSIM 984 40:10 11,65 5:09 124 Séniors
227 ETIENNE PATRICK 836 40:12 11,64 5:09 25 Vétérans 2
228 LEMOINE CAMILLE 206 40:13 11,64 5:09 9 Dames
229 CARABIN MARTINE 131 40:15 11,63 5:09 4 Ainées 2
230 DELREZ SANDRA 238 40:16 11,62 5:09 5 Ainées 2
231 SCHOLZEN JOANNIE 375 40:19 11,61 5:10 10 Dames
232 PARMENTIER JOACHIM 872 40:21 11,60 5:10 125 Séniors
233 HAVARD NOAH 763 40:30 11,55 5:11 17 Espoirs Garçons
234 CASTAGNE THOMAS 877 40:31 11,55 5:11 18 Espoirs Garçons
235 DEMOL CINDY 342 40:32 11,54 5:11 4 Ainées 1
236 SOMJA JEAN-PHILIPPE 532 40:33 11,54 5:11 126 Séniors
237 MARTIN ANTOINE 1038 40:34 11,54 5:12 127 Séniors
238 MOYSE EVELYNE 785 40:39 11,51 5:12 11 Dames
239 COUNOTTE THIBAULT 786 40:39 11,51 5:12 19 Espoirs Garçons
240 DE MARCO ERIC 332 40:42 11,50 5:13 39 Vétérans 1
241 HURLET LUCIEN 351 40:43 11,49 5:13 9 Vétérans 3
242 BREUER CLAIRE 83 40:45 11,48 5:13 5 Ainées 1
243 COLIN JEAN-LOUIS 169 40:49 11,46 5:14 10 Vétérans 3
244 BONY JONATHAN 1029 40:49 11,46 5:14 128 Séniors
245 GODARD MAXENCE 996 40:49 11,46 5:14 129 Séniors
246 VANACKER LUDOVIC 1030 40:50 11,46 5:14 130 Séniors
247 BASTIN MARCEL 760 40:50 11,46 5:14 26 Vétérans 2
248 TASQUIN YANNICK 298 40:52 11,45 5:14 131 Séniors
249 FAWAY LORY 1017 40:55 11,44 5:14 20 Espoirs Garçons
250 DEMONCEAU ANDY 802 40:57 11,43 5:15 132 Séniors
251 THOMSIN LEA 991 41:02 11,40 5:15 2 Espoirs Filles
252 MONAMI SERGE 1022 41:05 11,39 5:16 27 Vétérans 2
253 DELHEZ JEAN-FRANCOIS 155 41:15 11,34 5:17 133 Séniors
254 KALF LORIS 887 41:16 11,34 5:17 134 Séniors
255 JAMINON CHRISTIAN 865 41:17 11,34 5:17 135 Séniors
256 LAHAYE SARAH 278 41:19 11,33 5:17 12 Dames
257 SAVELKOUL AURELIE 758 41:21 11,32 5:18 6 Ainées 1
258 QUICKELS VINCENT 783 41:21 11,32 5:18 40 Vétérans 1
259 DENIS PIERRE 757 41:22 11,31 5:18 136 Séniors
260 HUMBLET MARIUS 880 41:27 11,29 5:18 21 Espoirs Garçons
261 SCHMETZ MARCEL 866 41:27 11,29 5:18 28 Vétérans 2
262 BALTUS GREGORY 988 41:28 11,29 5:19 137 Séniors
263 BEAUWENS MAGALI 59 41:30 11,28 5:19 7 Ainées 1
264 COURTIN THOMAS 799 41:32 11,27 5:19 138 Séniors
265 BERGER JULIEN 751 41:34 11,26 5:19 139 Séniors
266 BISSOT MICHEL 68 41:38 11,24 5:20 41 Vétérans 1
267 SCAPIN ROBERT 779 41:46 11,20 5:21 29 Vétérans 2
268 LEROY FRANCOIS 941 41:53 11,17 5:22 140 Séniors
269 DEROANNE MAXIME 876 41:54 11,17 5:22 22 Espoirs Garçons
270 LEFIN PASCALE 935 42:00 11,14 5:23 8 Ainées 1
271 DURBUT REGIS 886 42:01 11,14 5:23 141 Séniors
272 VANCAEYZEELE BENEDITE 827 42:04 11,12 5:23 9 Ainées 1
273 EVRARD JOHAN 270 42:04 11,12 5:23 142 Séniors
274 LORQUET DELPHINE 476 42:17 11,07 5:25 13 Dames
275 WEICKMANS ROGER 674 42:19 11,06 5:25 143 Séniors
276 SIMONIS EDDY 817 42:20 11,05 5:25 42 Vétérans 1
277 DEGUELDRE REMY 822 42:22 11,05 5:25 144 Séniors
278 EL BALDI FATIHA 256 42:27 11,02 5:26 10 Ainées 1
279 BECKERS RUDY 960 42:29 11,01 5:26 145 Séniors
280 LAMBERT VIRGINIE 830 42:34 10,99 5:27 11 Ainées 1
281 PIROSON CHRISTIAN 544 42:34 10,99 5:27 43 Vétérans 1
282 TIMMERMANN AURELIE 1012 42:35 10,99 5:27 14 Dames
283 DELEDICQUE JEAN LUC 916 42:35 10,99 5:27 30 Vétérans 2
284 COUNOTTE THOMAS 787 42:43 10,95 5:28 23 Espoirs Garçons
285 DI GIACOMO MAURICE 857 42:45 10,95 5:28 31 Vétérans 2
286 RENAERS STEPHANE 863 42:48 10,93 5:29 32 Vétérans 2
287 PIQUERAY CELINE 1019 42:51 10,92 5:29 12 Ainées 1
288 DUBOIS JEAN-FRANCOIS 143 42:51 10,92 5:29 44 Vétérans 1
289 GILLISSEN CAROLE 922 42:51 10,92 5:29 13 Ainées 1
290 CORNET LAURENT 895 42:51 10,92 5:29 146 Séniors
291 SCHWALL FRANCIS 921 42:52 10,92 5:29 45 Vétérans 1
292 LIÉGEOIS CHARLOTTE 1031 42:54 10,91 5:30 15 Dames
293 LIEGEOIS BENJAMIN 998 42:54 10,91 5:30 147 Séniors
294 ALLELEYN TEDDY 55 42:59 10,89 5:30 148 Séniors
295 MASSART ROMAIN 1110 43:00 10,88 5:30 149 Séniors
296 THISSEN JORDAN 652 43:02 10,87 5:31 150 Séniors
297 JAEGERS MARC 377 43:02 10,87 5:31 46 Vétérans 1
298 CHARLIER ROBIN 967 43:06 10,86 5:31 24 Espoirs Garçons
299 CHARLIER ALEXANDRE 137 43:07 10,85 5:31 151 Séniors
300 QUICKELS XAVIER 784 43:07 10,85 5:31 25 Espoirs Garçons
301 FASSIN JEFF 277 43:09 10,84 5:31 152 Séniors
302 VERJANS SARAH 888 43:10 10,84 5:32 14 Ainées 1
303 ANCION JEAN PASCAL 884 43:11 10,84 5:32 33 Vétérans 2
304 TIMMERMAN DAVID 415 43:11 10,84 5:32 153 Séniors
305 MOREAU SABRINA 507 43:14 10,82 5:32 15 Ainées 1
306 DELHASSE MICHEL 810 43:14 10,82 5:32 47 Vétérans 1
307 MERCENIER GILLES 223 43:15 10,82 5:32 154 Séniors
308 FAYMONVILLE CEDRIC 279 43:16 10,82 5:32 48 Vétérans 1
309 GRANDJEAN MARIAN 807 43:17 10,81 5:32 155 Séniors
310 NOIRFALISE CECILE 523 43:17 10,81 5:32 16 Ainées 1
311 DELAITTE PAUL 793 43:18 10,81 5:33 1 Vétérans 4
312 STANCHER FABIEN 926 43:19 10,80 5:33 34 Vétérans 2
313 SOLHEID ULRIC 805 43:23 10,79 5:33 156 Séniors
314 CAPIER JEAN-MARIE 197 43:27 10,77 5:34 11 Vétérans 3
315 KARYDAS IOANNIS 1062 43:30 10,76 5:34 157 Séniors
316 ARCHAMBEAU ROGER 794 43:32 10,75 5:34 12 Vétérans 3
317 SCHNAKERS JEAN YVES 983 43:37 10,73 5:35 158 Séniors
318 VERCAMMEN MICHEL 427 43:38 10,72 5:35 49 Vétérans 1
319 SIMONIS SUZANNE 619 43:39 10,72 5:35 2 Ainées 3
320 KEVELAER LAURENCE 1052 43:40 10,72 5:35 17 Ainées 1
321 DEVILLERS ALAIN 282 43:40 10,72 5:35 35 Vétérans 2
322 DENOISIEUX CHRISTIAN 229 43:42 10,71 5:36 36 Vétérans 2
323 POLIS LUCIENNE 560 43:43 10,70 5:36 6 Ainées 2
324 BEAUVE ALICIA 965 43:47 10,69 5:36 16 Dames
325 SCHMETZ OPHÉLIE 911 43:47 10,69 5:36 17 Dames
326 MATZ QUENTIN 913 43:57 10,65 5:38 159 Séniors
327 DURGON SEMY 792 43:57 10,65 5:38 160 Séniors
328 BECKERS NICOLAS 791 43:58 10,64 5:38 161 Séniors
329 SPITS CHARLINE 804 44:07 10,61 5:39 18 Dames
330 ERNOTTE MAURINE 862 44:12 10,59 5:40 19 Dames
331 JANSSEN MAURICE 939 44:14 10,58 5:40 37 Vétérans 2
332 CHARLIER TANNA 964 44:22 10,55 5:41 18 Ainées 1
333 SCHOONBROODT ESTEBAN 882 44:23 10,54 5:41 26 Espoirs Garçons
334 MONTENAIR NICOLAS 897 44:30 10,52 5:42 162 Séniors
335 GILSON QUENTIN 945 44:31 10,51 5:42 163 Séniors
336 DUPONT LUCAS 868 44:33 10,50 5:42 27 Espoirs Garçons
337 BISSOT DYLAN 92 44:39 10,48 5:43 28 Espoirs Garçons
338 GRANDJEAN ROMANE 808 44:40 10,48 5:43 3 Espoirs Filles
339 EVERAERT MATEO 841 44:46 10,45 5:44 29 Espoirs Garçons
340 HANSEN CORALINE 902 44:50 10,44 5:44 4 Espoirs Filles
341 HANSEN JONATHAN 901 44:50 10,44 5:44 164 Séniors
342 JACOB MARIE 838 44:53 10,43 5:45 19 Ainées 1
343 LECOCQ YVAN 837 44:54 10,42 5:45 50 Vétérans 1
344 LABEDZ JONATHAN 1051 44:58 10,41 5:45 165 Séniors
345 EVRARD AUDE 1058 44:58 10,41 5:45 20 Dames
346 JACQUES ETIENNE 1059 44:58 10,41 5:45 166 Séniors
347 ROUFOSSE UGO 34 45:01 10,39 5:46 38 Vétérans 2
348 KAYE MAXIME 1016 45:13 10,35 5:47 167 Séniors
349 BRAGARD BENOIT 987 45:14 10,35 5:47 39 Vétérans 2
350 COLLIN DIDIER 919 45:18 10,33 5:48 40 Vétérans 2
351 HOULMONT MATHILDE 181 45:19 10,33 5:48 21 Dames
352 BASTIN ISABELLE 62 45:20 10,32 5:48 7 Ainées 2
353 GAUTHY XAVIER 1070 45:29 10,29 5:49 168 Séniors
354 ERNENS MARJORIE 1066 45:31 10,28 5:50 22 Dames
355 BERTRANG JULIEN 79 45:36 10,26 5:50 2 Vétérans 4
356 SCHMETZ JOSE 820 45:42 10,24 5:51 41 Vétérans 2
357 LE BOULENGE DELPHINE 1002 45:43 10,24 5:51 23 Dames
358 VANDEBERG PAUL 418 45:50 10,21 5:52 3 Vétérans 4
359 NOE CLEMENCE 1043 45:50 10,21 5:52 24 Dames
360 AERTS MANON 1041 45:52 10,20 5:52 25 Dames
361 KAYE GILLES 1014 45:55 10,19 5:53 169 Séniors
362 LEJOLY CELINE 968 45:57 10,18 5:53 26 Dames
363 LOGNOUL RAPHAEL 1103 45:59 10,18 5:53 42 Vétérans 2
364 DE CORTE NELE 1104 46:00 10,17 5:53 27 Dames
365 NEUPREZ NATHAN 918 46:01 10,17 5:54 30 Espoirs Garçons
366 PIEDBOEUF SEBASTIEN 1025 46:03 10,16 5:54 31 Espoirs Garçons
367 NUCATOLA GREGORY 985 46:08 10,14 5:54 170 Séniors
368 CASTELLI CATHERINE 934 46:12 10,13 5:55 28 Dames
369 BALTHASART MARIE 889 46:21 10,10 5:56 8 Ainées 2
370 MUYTERS VALERIE 639 46:21 10,10 5:56 20 Ainées 1
371 DELHEZ LAURENT 775 46:35 10,05 5:58 171 Séniors
372 MIDRE ARNAUD 1057 46:36 10,04 5:58 32 Espoirs Garçons
373 RESIMONT SACHA 9990 46:38 10,03 5:58 33 Espoirs Garçons
374 PIRARD OLIVIER 543 46:38 10,03 5:58 51 Vétérans 1
375 RESIMONT BERNARD 9991 46:38 10,03 5:58 52 Vétérans 1
376 VILAIN FLORIAN 1056 46:42 10,02 5:59 34 Espoirs Garçons
377 GROGNA JEROME 946 46:48 10,00 6:00 172 Séniors
378 FRANCOIS FLORIAN 801 46:48 10,00 6:00 173 Séniors
379 CIARNIELLO NATHAN 1075 46:50 9,99 6:00 35 Espoirs Garçons
380 CIARNIELLO FREDERIC 1076 46:52 9,98 6:00 174 Séniors
381 JANSSEN VINCENT 966 46:53 9,98 6:00 175 Séniors
382 DE MARCO MARINE 809 46:54 9,98 6:00 29 Dames
383 LEJEUNE KATHY 954 47:09 9,92 6:02 9 Ainées 2
384 GENON MARIE-PIERRE 1000 47:09 9,92 6:02 10 Ainées 2
385 ZUBIOLO EMMANUELLE 955 47:10 9,92 6:02 11 Ainées 2
386 GREGOIRE HUGUES 513 47:15 9,90 6:03 176 Séniors
387 MERCENIER JEAN-LUC 526 47:16 9,90 6:03 53 Vétérans 1
388 CHACONA DIEGO 1034 47:21 9,88 6:04 36 Espoirs Garçons
389 STASSEN CAROLE 995 47:22 9,88 6:04 21 Ainées 1
390 SCHMETZ FRANCOIS 920 47:27 9,86 6:05 37 Espoirs Garçons
391 MILON ALBERT 1113 47:41 9,81 6:06 54 Vétérans 1
392 ULLIANA BERNARD 1047 47:49 9,79 6:07 13 Vétérans 3
393 OUTMANNS LASZLO 1073 47:50 9,78 6:07 177 Séniors
394 PIEDBOEUF ANTOINE 1164 47:57 9,76 6:08 38 Espoirs Garçons
395 TOUSSAINT BERTRAND 981 48:05 9,73 6:09 55 Vétérans 1
396 RIGO JEAN FRANCOIS 1101 48:07 9,73 6:10 56 Vétérans 1
397 HAVARD MARIE 764 48:10 9,71 6:10 5 Espoirs Filles
398 BASILE PASCAL 1024 48:15 9,70 6:11 39 Espoirs Garçons
399 CUVEE CAROLINE 1042 48:17 9,69 6:11 22 Ainées 1
400 REMY HELENE 932 48:17 9,69 6:11 30 Dames
401 RESIMONT SACHA 1106 48:19 9,68 6:11 40 Espoirs Garçons
402 BRAGARD GAELLE 1026 48:19 9,68 6:11 23 Ainées 1
403 RESIMONT BERNARD 1105 48:20 9,68 6:11 57 Vétérans 1
404 CHAINEUX STEPHANIE 1027 48:20 9,68 6:11 31 Dames
405 CRICKBOOM ARNAUD 1112 48:23 9,67 6:12 178 Séniors
406 COURTIN PATRICK 778 48:30 9,65 6:13 43 Vétérans 2
407 SCHUMMACKER MARINE 828 48:36 9,63 6:13 6 Espoirs Filles
408 PEETERSILLE FREDERIC 917 48:41 9,61 6:14 58 Vétérans 1
409 LEBEAU CHARLOTTE 370 48:45 9,60 6:15 12 Ainées 2
410 STOCKART JULIEN 950 49:01 9,55 6:17 179 Séniors
411 DARIMONT DAVID 949 49:02 9,54 6:17 180 Séniors
412 HENDRICK MELANIE 899 49:24 9,47 6:20 32 Dames
413 URBAIN STEF 976 49:26 9,47 6:20 59 Vétérans 1
414 TEFNIN FRANCOIS 767 49:52 9,38 6:23 4 Vétérans 4
415 CALVO TONI 151 50:04 9,35 6:25 44 Vétérans 2
416 KNOPS SEBASTIEN 974 50:21 9,29 6:27 181 Séniors
417 JENNES JEAN-FRANCOIS 498 50:21 9,29 6:27 182 Séniors
418 LEYLA CARL 777 50:25 9,28 6:27 14 Vétérans 3
419 VANDERHEYDEN SEBASTIEN 788 50:27 9,28 6:28 183 Séniors
420 DE WALEFFE SANDRA 982 50:29 9,27 6:28 13 Ainées 2
421 LEGROS NOEMIE 869 50:34 9,25 6:29 33 Dames
422 VANDEGAAR SOPHIE 843 50:37 9,24 6:29 24 Ainées 1
423 HOUSTON GEDEBOR 845 50:38 9,24 6:29 184 Séniors
424 SPABECK NOEMIE 1028 50:48 9,21 6:30 34 Dames
425 LEONARD MARJORIE 1035 50:56 9,19 6:31 35 Dames
426 GOHY VINCENT 875 51:34 9,07 6:36 45 Vétérans 2
427 GYSEN MALORIE 975 51:36 9,07 6:36 14 Ainées 2
428 MULIER LIONEL 907 51:39 9,06 6:37 41 Espoirs Garçons
429 TEYSSIER JUSTINE 1108 51:46 9,04 6:38 36 Dames
430 NIZET VERONIQUE 241 51:53 9,02 6:39 15 Ainées 2
431 HENDRICK LAURA 898 51:56 9,01 6:39 37 Dames
432 MUYTERS SERGE 515 51:58 9,00 6:39 5 Vétérans 4
433 CARABIN MANU 936 52:03 8,99 6:40 25 Ainées 1
434 GOOSSENS THIERRY 937 52:03 8,99 6:40 60 Vétérans 1
435 VERITER ELISABETH 22 52:10 8,97 6:41 16 Ainées 2
436 SCHMETZ LOUIS 759 52:21 8,94 6:42 1 Vétérans 5
437 ANTOINE MELANIE 933 52:24 8,93 6:43 38 Dames
438 DEJARDIN JEREMY 931 52:28 8,92 6:43 185 Séniors
439 DORTU RACHEL 766 52:32 8,91 6:44 26 Ainées 1
440 GIACOMAZZI ISABELLE 906 52:38 8,89 6:44 27 Ainées 1
441 DEMOULIN THEO 951 52:49 8,86 6:46 42 Espoirs Garçons
442 COMINOLI CAROLINE 942 52:52 8,85 6:46 28 Ainées 1
443 DEMOULIN CHRISTOPHE 952 52:52 8,85 6:46 61 Vétérans 1
444 DEVILLE ANAIS 958 53:02 8,82 6:48 39 Dames
445 RINALDI VINCENT 957 53:02 8,82 6:48 186 Séniors
446 LISF SARAH 1074 53:12 8,80 6:49 40 Dames
447 MEUNIER SHIRLEY 986 53:16 8,78 6:49 7 Espoirs Filles
448 DETHIER SAMUEL 771 53:17 8,78 6:49 43 Espoirs Garçons
449 LAVASE ALEXANDRE 994 53:18 8,78 6:50 44 Espoirs Garçons
450 LAMBERT BORIS 756 53:18 8,78 6:50 187 Séniors
451 DETHIER FREDERIC 770 53:18 8,78 6:50 62 Vétérans 1
452 HERTAY FRANCOISE 890 53:20 8,77 6:50 29 Ainées 1
453 HERZET MARLENE 254 53:20 8,77 6:50 3 Ainées 3
454 NOLS EVELYNE 972 53:23 8,77 6:50 4 Ainées 3
455 RODRIGUEZ MAITE 1013 53:27 8,75 6:51 41 Dames
456 COMBLE CHARLES 796 53:33 8,74 6:51 15 Vétérans 3
457 JENNES PATRICK 355 54:15 8,63 6:57 16 Vétérans 3
458 BASTIN ISALINE 943 55:12 8,48 7:04 8 Espoirs Filles
459 BASTIN NICOLAS 761 55:21 8,45 7:05 188 Séniors
460 LAIXHAY ANNE SOPHIE 879 55:50 8,38 7:09 42 Dames
461 DERU NATHAN 893 56:02 8,35 7:11 45 Espoirs Garçons
462 GENGOUX ANNE MARIE 878 56:40 8,26 7:15 17 Ainées 2
463 HAXHE NADEGE 768 57:35 8,13 7:23 43 Dames
464 PAESCHEN NAREISHA 782 57:43 8,11 7:24 30 Ainées 1
465 BALANCIER MARGAUX 1010 57:50 8,09 7:24 44 Dames
466 JACQUET SABRINA 993 58:20 8,02 7:28 31 Ainées 1
467 HANSSEN JUSTINE 971 58:21 8,02 7:28 45 Dames
468 DELAIRESSE GILBERT 795 58:46 7,96 7:32 6 Vétérans 4
469 DENOOZ KYLLIAN 867 59:04 7,92 7:34 46 Espoirs Garçons
470 SOLTANI SACHA 1071 59:18 7,89 7:36 47 Espoirs Garçons
471 UNDORF ADRIEN 856 1:00:53 7,69 7:48 189 Séniors
472 WARNOTTE JULIETTE 855 1:00:53 7,69 7:48 46 Dames
473 DOURCY ALAIN 824 1:02:19 7,51 7:59 190 Séniors
474 MOINEAU VICTOR 502 1:05:43 7,12 8:25 7 Vétérans 4